createdAt,value
2023-05-11T00:03:45.432Z,16.77
2023-05-11T00:08:47.734Z,16.72
2023-05-11T00:13:50.000Z,16.76
2023-05-11T00:18:52.317Z,16.61
2023-05-11T00:23:54.939Z,16.78
2023-05-11T00:28:57.204Z,16.74
2023-05-11T00:33:59.525Z,16.68
2023-05-11T00:39:01.893Z,16.69
2023-05-11T00:44:04.362Z,16.80
2023-05-11T00:49:07.456Z,16.65
2023-05-11T00:54:15.646Z,16.77
2023-05-11T00:59:18.026Z,16.69
2023-05-11T01:04:21.155Z,16.56
2023-05-11T01:09:41.929Z,16.85
2023-05-11T01:15:01.341Z,16.68
2023-05-11T01:20:07.815Z,16.70
2023-05-11T01:25:13.126Z,16.78
2023-05-11T01:30:18.235Z,16.68
2023-05-11T01:35:23.497Z,16.70
2023-05-11T01:40:29.909Z,16.37
2023-05-11T01:45:34.804Z,16.35
2023-05-11T01:50:38.135Z,16.56
2023-05-11T01:55:42.347Z,16.56
2023-05-11T02:00:45.923Z,16.58
2023-05-11T02:05:49.993Z,16.61
2023-05-11T02:10:55.140Z,16.33
2023-05-11T02:15:59.141Z,16.42
2023-05-11T02:21:03.481Z,16.53
2023-05-11T02:26:07.131Z,16.37
2023-05-11T02:31:18.091Z,16.39
2023-05-11T02:36:23.314Z,16.45
2023-05-11T02:41:30.056Z,16.40
2023-05-11T02:46:36.084Z,16.49
2023-05-11T02:51:41.677Z,16.37
2023-05-11T02:56:45.360Z,16.27
2023-05-11T03:01:48.544Z,16.43
2023-05-11T03:06:51.160Z,16.26
2023-05-11T03:11:53.502Z,16.31
2023-05-11T03:16:57.740Z,16.26
2023-05-11T03:22:01.424Z,16.14
2023-05-11T03:27:06.373Z,16.23
2023-05-11T03:32:09.974Z,16.40
2023-05-11T03:37:14.198Z,16.26
2023-05-11T03:42:18.161Z,16.25
2023-05-11T03:47:21.570Z,16.44
2023-05-11T03:52:24.295Z,16.38
2023-05-11T03:57:26.933Z,16.39
2023-05-11T04:02:29.232Z,16.21
2023-05-11T04:07:33.330Z,16.35
2023-05-11T04:12:35.566Z,16.40
2023-05-11T04:17:37.823Z,16.44
2023-05-11T04:22:40.040Z,16.56
2023-05-11T04:27:42.306Z,16.60
2023-05-11T04:32:44.547Z,16.64
2023-05-11T04:37:46.849Z,16.54
2023-05-11T04:42:49.101Z,16.81
2023-05-11T04:47:52.084Z,16.76
2023-05-11T04:52:54.299Z,16.76
2023-05-11T04:57:56.615Z,16.88
2023-05-11T05:02:58.874Z,16.73
2023-05-11T05:08:01.222Z,16.88
2023-05-11T05:13:03.450Z,16.96
2023-05-11T05:18:05.742Z,17.11
2023-05-11T05:23:07.962Z,17.11
2023-05-11T05:28:10.113Z,17.22
2023-05-11T05:33:12.636Z,17.40
2023-05-11T05:38:14.833Z,17.63
2023-05-11T05:43:17.049Z,17.59
2023-05-11T05:48:19.244Z,17.72
2023-05-11T05:53:21.485Z,17.80
2023-05-11T05:58:23.733Z,18.01
2023-05-11T06:03:28.432Z,17.83
2023-05-11T06:08:31.510Z,18.00
2023-05-11T06:13:33.660Z,18.17
2023-05-11T06:18:35.984Z,18.20
2023-05-11T06:23:38.227Z,18.33
2023-05-11T06:28:40.512Z,18.45
2023-05-11T06:33:43.455Z,18.46
2023-05-11T06:38:45.704Z,18.72
2023-05-11T06:43:47.927Z,18.88
2023-05-11T06:48:50.766Z,18.77
2023-05-11T06:53:53.050Z,18.84
2023-05-11T06:58:55.234Z,18.80
2023-05-11T07:03:57.500Z,18.98
2023-05-11T07:08:59.717Z,18.92
2023-05-11T07:14:01.930Z,18.97
2023-05-11T07:19:05.537Z,19.04
2023-05-11T07:24:07.998Z,18.91
2023-05-11T07:29:10.256Z,18.78
2023-05-11T07:34:12.485Z,18.81
2023-05-11T07:39:17.364Z,18.84
2023-05-11T07:44:19.677Z,18.74
2023-05-11T07:49:28.181Z,18.86
2023-05-11T07:54:33.425Z,18.74
2023-05-11T07:59:35.734Z,18.75
2023-05-11T08:04:38.392Z,18.78
2023-05-11T08:09:40.650Z,18.68
2023-05-11T08:14:43.668Z,18.74
2023-05-11T08:19:46.121Z,18.73
2023-05-11T08:24:50.175Z,18.85
2023-05-11T08:29:52.379Z,19.04
2023-05-11T08:34:54.794Z,19.02
2023-05-11T08:39:57.282Z,18.99
2023-05-11T08:45:00.658Z,19.28
2023-05-11T08:50:03.129Z,19.44
2023-05-11T08:55:05.738Z,19.51
2023-05-11T09:00:09.016Z,19.47
2023-05-11T09:05:11.872Z,19.52
2023-05-11T09:10:14.190Z,19.66
2023-05-11T09:15:16.384Z,19.79
2023-05-11T09:20:28.222Z,19.73
2023-05-11T09:25:35.362Z,19.71
2023-05-11T09:30:37.983Z,19.94
2023-05-11T09:35:40.707Z,19.95
2023-05-11T09:40:54.122Z,19.84
2023-05-11T09:45:58.429Z,19.99
2023-05-11T09:51:06.278Z,19.95
2023-05-11T09:56:08.685Z,19.86
2023-05-11T10:01:11.311Z,19.78
2023-05-11T10:06:13.675Z,19.92
2023-05-11T10:11:16.169Z,20.15
2023-05-11T10:16:21.305Z,20.15
2023-05-11T10:21:24.026Z,20.02
2023-05-11T10:26:27.109Z,20.11
2023-05-11T10:31:30.341Z,20.43
2023-05-11T10:36:33.613Z,20.33
2023-05-11T10:41:45.541Z,20.37
2023-05-11T10:47:28.329Z,20.12
2023-05-11T10:52:47.730Z,20.29
2023-05-11T10:58:06.824Z,20.09
2023-05-11T11:03:12.952Z,20.08
2023-05-11T11:08:15.243Z,19.70
2023-05-11T11:13:20.486Z,19.64
2023-05-11T11:18:30.907Z,19.69
2023-05-11T11:23:49.530Z,19.62
2023-05-11T11:28:54.619Z,19.64
2023-05-11T11:33:59.461Z,19.60
2023-05-11T11:39:04.291Z,19.44
2023-05-11T11:44:22.255Z,19.23
2023-05-11T11:49:28.063Z,19.25
2023-05-11T11:54:48.238Z,19.11
2023-05-11T11:59:50.546Z,19.10
2023-05-11T12:05:19.198Z,18.95
2023-05-11T12:10:23.534Z,19.01
2023-05-11T12:15:35.178Z,18.90
2023-05-11T12:20:37.525Z,18.82
2023-05-11T12:25:39.851Z,18.90
2023-05-11T12:30:42.360Z,18.78
2023-05-11T12:35:44.829Z,18.83
2023-05-11T12:40:51.699Z,18.52
2023-05-11T12:45:54.181Z,18.76
2023-05-11T12:50:57.287Z,18.69
2023-05-11T12:56:00.426Z,18.79
2023-05-11T13:01:02.901Z,18.63
2023-05-11T13:06:09.824Z,18.76
2023-05-11T13:11:23.013Z,18.60
2023-05-11T13:16:33.025Z,18.67
2023-05-11T13:21:35.331Z,18.54
2023-05-11T13:26:37.871Z,18.61
2023-05-11T13:31:47.687Z,18.57
2023-05-11T13:36:50.355Z,18.70
2023-05-11T13:41:55.044Z,18.66
2023-05-11T13:46:58.202Z,18.64
2023-05-11T13:52:00.982Z,18.63
2023-05-11T13:57:03.439Z,18.60
2023-05-11T14:02:06.011Z,18.58
2023-05-11T14:07:08.389Z,18.55
2023-05-11T14:12:11.055Z,18.64
2023-05-11T14:17:16.172Z,18.53
2023-05-11T14:22:18.408Z,18.29
2023-05-11T14:27:20.595Z,18.39
2023-05-11T14:32:22.846Z,18.34
2023-05-11T14:37:25.051Z,18.29
2023-05-11T14:42:27.445Z,18.19
2023-05-11T14:47:29.880Z,18.31
2023-05-11T14:52:32.257Z,18.17
2023-05-11T14:57:34.548Z,18.24
2023-05-11T15:02:36.925Z,18.23
2023-05-11T15:07:39.773Z,18.25
2023-05-11T15:12:41.984Z,18.24
2023-05-11T15:17:44.344Z,17.87
2023-05-11T15:22:48.063Z,18.23
2023-05-11T15:27:50.396Z,18.05
2023-05-11T15:32:52.691Z,18.06
2023-05-11T15:37:54.962Z,17.98
2023-05-11T15:42:58.731Z,18.03
2023-05-11T15:48:01.785Z,18.11
2023-05-11T15:53:04.213Z,18.19
2023-05-11T15:58:09.736Z,17.79
2023-05-11T16:03:12.235Z,18.01
2023-05-11T16:08:15.030Z,17.95
2023-05-11T16:13:17.402Z,17.87
2023-05-11T16:18:20.349Z,18.05
2023-05-11T16:23:22.792Z,18.04
2023-05-11T16:28:25.692Z,17.81
2023-05-11T16:33:27.924Z,18.05
2023-05-11T16:38:30.102Z,17.99
2023-05-11T16:43:33.802Z,17.91
2023-05-11T16:48:36.415Z,17.81
2023-05-11T16:53:38.706Z,17.96
2023-05-11T16:58:41.591Z,17.57
2023-05-11T17:03:44.179Z,17.79
2023-05-11T17:08:46.499Z,17.84
2023-05-11T17:13:48.794Z,17.77
2023-05-11T17:18:51.563Z,17.61
2023-05-11T17:23:53.808Z,17.64
2023-05-11T17:28:56.125Z,17.61
2023-05-11T17:33:58.571Z,17.65
2023-05-11T17:39:01.718Z,17.44
2023-05-11T17:44:04.830Z,17.33
2023-05-11T17:49:08.545Z,17.55
2023-05-11T17:54:11.623Z,17.44
2023-05-11T17:59:13.883Z,17.12
2023-05-11T18:04:16.280Z,17.31
2023-05-11T18:09:19.990Z,17.26
2023-05-11T18:14:22.259Z,17.21
2023-05-11T18:19:24.539Z,17.15
2023-05-11T18:24:27.416Z,17.26
2023-05-11T18:29:29.826Z,17.22
2023-05-11T18:34:32.208Z,17.22
2023-05-11T18:39:34.493Z,17.25
2023-05-11T18:44:36.749Z,17.13
2023-05-11T18:49:39.547Z,17.24
2023-05-11T18:54:42.083Z,17.10
2023-05-11T18:59:45.368Z,16.95
2023-05-11T19:04:47.549Z,17.21
2023-05-11T19:09:49.845Z,17.22
2023-05-11T19:14:55.844Z,17.03
2023-05-11T19:19:58.132Z,17.03
2023-05-11T19:25:01.389Z,17.05
2023-05-11T19:30:04.941Z,16.99
2023-05-11T19:35:07.384Z,16.88
2023-05-11T19:40:37.406Z,16.84
2023-05-11T19:45:33.567Z,16.94
2023-05-11T19:50:35.935Z,17.14
2023-05-11T19:55:40.197Z,17.27
2023-05-11T20:00:43.217Z,17.26
2023-05-11T20:05:45.941Z,17.35
2023-05-11T20:10:48.553Z,17.21
2023-05-11T20:15:51.131Z,17.21
2023-05-11T20:20:53.381Z,17.10
2023-05-11T20:25:55.554Z,17.24
2023-05-11T20:30:57.773Z,17.17
2023-05-11T20:36:00.644Z,17.24
2023-05-11T20:41:02.825Z,17.10
2023-05-11T20:46:05.938Z,17.09
2023-05-11T20:51:08.225Z,17.01
2023-05-11T20:56:13.040Z,16.99
2023-05-11T21:01:15.538Z,17.15
2023-05-11T21:06:17.999Z,17.06
2023-05-11T21:11:20.296Z,16.96
2023-05-11T21:16:22.812Z,17.10
2023-05-11T21:21:25.652Z,16.99
2023-05-11T21:26:27.875Z,17.10
2023-05-11T21:31:30.192Z,17.00
2023-05-11T21:36:32.566Z,16.86
2023-05-11T21:41:34.810Z,16.91
2023-05-11T21:46:37.088Z,16.84
2023-05-11T21:51:39.491Z,17.01
2023-05-11T21:56:42.222Z,16.99
2023-05-11T22:01:45.133Z,16.92
2023-05-11T22:06:47.308Z,16.94
2023-05-11T22:11:49.574Z,16.66
2023-05-11T22:16:52.489Z,16.78
2023-05-11T22:21:54.684Z,16.73
2023-05-11T22:26:56.871Z,16.71
2023-05-11T22:31:59.145Z,16.75
2023-05-11T22:37:01.984Z,16.68
2023-05-11T22:42:04.329Z,16.75
2023-05-11T22:47:06.836Z,16.69
2023-05-11T22:52:09.048Z,16.63
2023-05-11T22:57:13.937Z,16.59
2023-05-11T23:02:16.179Z,16.50
2023-05-11T23:07:19.290Z,16.53
2023-05-11T23:12:21.748Z,16.65
2023-05-11T23:17:24.110Z,16.64
2023-05-11T23:22:26.487Z,16.45
2023-05-11T23:27:29.059Z,16.59
2023-05-11T23:32:31.530Z,16.56
2023-05-11T23:37:33.975Z,16.56
2023-05-11T23:42:36.293Z,16.39
2023-05-11T23:47:38.625Z,16.42
2023-05-11T23:52:40.972Z,16.50
2023-05-11T23:57:44.159Z,16.56
